Time;durP1;ratioP1;P1;durP2;ratioP2;P2;SDS_P1;SDS_P2;PMS_P1;PMS_P2;Temp;Humidity;BMP_temperature;BMP_pressure;BME280_temperature;BME280_humidity;BME280_pressure;Samples;Min_cycle;Max_cycle;Signal;HPM_P1;HPM_P2
2023/07/26 00:00:44;;;;;;;;;;;;;;;25.66;58.83;98721.97;5014907;28;878;-66
2023/07/26 00:03:11;;;;;;;;;;;;;;;25.77;58.11;98721.06;5014368;28;1964;-66
2023/07/26 00:05:37;;;;;;;;;;;;;;;25.75;57.68;98709.50;5014553;28;838;-67
2023/07/26 00:08:04;;;;;;;;;;;;;;;25.67;57.93;98703.72;5014424;28;866;-66
2023/07/26 00:10:31;;;;;;;;;;;;;;;25.59;58.33;98708.44;5014536;28;865;-66
2023/07/26 00:12:58;;;;;;;;;;;;;;;25.53;58.23;98709.81;5014328;28;836;-66
2023/07/26 00:15:25;;;;;;;;;;;;;;;25.49;58.50;98706.50;5014351;28;803;-66
2023/07/26 00:17:52;;;;;;;;;;;;;;;25.53;58.21;98704.16;5014277;28;808;-66
2023/07/26 00:20:18;;;;;;;;;;;;;;;25.61;57.68;98693.78;5014296;28;854;-66
2023/07/26 00:22:45;;;;;;;;;;;;;;;25.68;57.34;98695.97;5014261;28;1882;-66
2023/07/26 00:25:12;;;;;;;;;;;;;;;25.70;57.16;98692.63;5014155;28;807;-66
2023/07/26 00:27:39;;;;;;;;;;;;;;;25.70;57.08;98701.88;5014146;28;878;-66
2023/07/26 00:30:07;;;;;;;;;;;;;;;25.68;57.16;98698.81;5014010;28;867;-66
2023/07/26 00:32:34;;;;;;;;;;;;;;;25.52;57.87;98694.13;5013960;28;803;-66
2023/07/26 00:35:00;;;;;;;;;;;;;;;25.26;58.88;98698.28;5013905;28;847;-66
2023/07/26 00:37:27;;;;;;;;;;;;;;;25.01;60.35;98700.34;5013945;28;888;-66
2023/07/26 00:39:54;;;;;;;;;;;;;;;24.83;61.38;98691.22;5013915;28;807;-66
2023/07/26 00:42:20;;;;;;;;;;;;;;;24.84;61.38;98692.00;5013874;28;1883;-66
2023/07/26 00:44:47;;;;;;;;;;;;;;;24.76;61.99;98685.41;5013855;28;883;-66
2023/07/26 00:47:14;;;;;;;;;;;;;;;24.76;62.34;98683.34;5014072;28;952;-65
2023/07/26 00:49:40;;;;;;;;;;;;;;;24.77;62.15;98676.41;5033013;28;1304;-66
2023/07/26 00:52:09;;;;;;;;;;;;;;;24.73;62.70;98687.22;5033420;28;842;-66
2023/07/26 00:54:35;;;;;;;;;;;;;;;24.80;62.31;98683.81;5033460;28;893;-66
2023/07/26 00:57:02;;;;;;;;;;;;;;;24.93;61.66;98688.06;5033350;28;909;-66
2023/07/26 00:59:29;;;;;;;;;;;;;;;25.03;60.89;98683.59;5033367;28;830;-66
2023/07/26 01:01:58;;;;;;;;;;;;;;;25.06;60.88;98680.47;5033093;28;1910;-65
2023/07/26 01:04:25;;;;;;;;;;;;;;;24.91;61.57;98676.53;5033169;28;815;-66
2023/07/26 01:06:58;;;;;;;;;;;;;;;24.80;62.08;98674.59;5033169;28;865;-66
2023/07/26 01:09:31;;;;;;;;;;;;;;;24.70;62.53;98670.56;5032671;28;870;-66
2023/07/26 01:12:02;;;;;;;;;;;;;;;24.59;63.12;98675.03;5033217;28;877;-67
2023/07/26 01:14:35;;;;;;;;;;;;;;;24.56;64.18;98678.13;5032899;28;913;-66
2023/07/26 01:17:02;;;;;;;;;;;;;;;24.48;64.55;98672.28;5033026;28;807;-67
2023/07/26 01:19:29;;;;;;;;;;;;;;;24.39;64.94;98673.38;5032850;28;849;-66
2023/07/26 01:21:56;;;;;;;;;;;;;;;24.39;64.63;98664.91;5032818;28;1914;-66
2023/07/26 01:24:23;;;;;;;;;;;;;;;24.45;64.73;98665.63;5032784;28;872;-66
2023/07/26 01:26:50;;;;;;;;;;;;;;;24.37;65.21;98670.31;5032768;28;794;-66
2023/07/26 01:29:17;;;;;;;;;;;;;;;24.23;66.57;98663.72;5032718;28;827;-66
2023/07/26 01:31:43;;;;;;;;;;;;;;;24.19;66.61;98663.22;5032609;28;894;-65
2023/07/26 01:34:11;;;;;;;;;;;;;;;24.48;65.13;98671.50;5032717;28;897;-66
2023/07/26 01:36:39;;;;;;;;;;;;;;;24.64;64.11;98659.31;5032569;28;810;-66
2023/07/26 01:39:07;;;;;;;;;;;;;;;24.71;63.64;98655.91;5032709;28;885;-66
2023/07/26 01:41:35;;;;;;;;;;;;;;;24.78;63.28;98654.56;5032385;28;1951;-65
2023/07/26 01:44:02;;;;;;;;;;;;;;;24.91;62.67;98654.69;5032485;28;870;-66
2023/07/26 01:46:29;;;;;;;;;;;;;;;24.98;62.42;98642.03;5032460;28;897;-66
2023/07/26 01:48:55;;;;;;;;;;;;;;;24.95;62.48;98649.50;5032312;28;1139;-66
2023/07/26 01:51:22;;;;;;;;;;;;;;;24.87;62.99;98645.72;5032259;28;823;-66
2023/07/26 01:53:49;;;;;;;;;;;;;;;24.87;63.18;98648.56;5032363;28;826;-66
2023/07/26 01:56:16;;;;;;;;;;;;;;;24.81;63.16;98648.59;5032174;28;815;-66
2023/07/26 01:58:42;;;;;;;;;;;;;;;24.67;63.96;98651.84;5032255;28;949;-66
2023/07/26 02:01:09;;;;;;;;;;;;;;;24.58;64.65;98644.47;5032016;28;1918;-66
2023/07/26 02:03:36;;;;;;;;;;;;;;;24.46;65.06;98640.97;5032186;28;815;-66
2023/07/26 02:06:02;;;;;;;;;;;;;;;24.40;65.50;98652.28;5032094;28;909;-66
2023/07/26 02:08:29;;;;;;;;;;;;;;;24.26;66.42;98645.00;5031969;28;901;-66
2023/07/26 02:10:56;;;;;;;;;;;;;;;24.06;67.83;98637.69;5032106;28;890;-65
2023/07/26 02:13:23;;;;;;;;;;;;;;;23.86;69.52;98638.09;5031931;28;866;-66
2023/07/26 02:15:50;;;;;;;;;;;;;;;23.64;70.95;98646.13;5032005;28;869;-66
2023/07/26 02:18:16;;;;;;;;;;;;;;;23.45;72.71;98645.19;5031897;28;815;-66
2023/07/26 02:20:43;;;;;;;;;;;;;;;23.27;74.05;98637.31;5031272;28;848;-66
2023/07/26 02:23:10;;;;;;;;;;;;;;;23.04;76.82;98640.19;5031825;28;1889;-67
2023/07/26 02:25:37;;;;;;;;;;;;;;;22.82;79.60;98644.59;5031853;28;854;-66
2023/07/26 02:28:04;;;;;;;;;;;;;;;22.69;81.62;98643.59;5032159;28;847;-66
2023/07/26 02:30:30;;;;;;;;;;;;;;;22.59;82.48;98637.44;5031704;28;894;-66
2023/07/26 02:32:58;;;;;;;;;;;;;;;22.54;82.87;98641.06;5031836;28;874;-66
2023/07/26 02:35:24;;;;;;;;;;;;;;;22.49;83.76;98633.34;5031768;28;912;-66
2023/07/26 02:37:51;;;;;;;;;;;;;;;22.48;84.31;98626.97;5031833;28;893;-66
2023/07/26 02:40:18;;;;;;;;;;;;;;;22.41;85.33;98621.88;5031701;28;870;-66
2023/07/26 02:42:45;;;;;;;;;;;;;;;22.50;85.16;98624.41;5031718;28;1945;-65
2023/07/26 02:45:11;;;;;;;;;;;;;;;22.67;84.18;98620.81;5031639;28;898;-66
2023/07/26 02:47:38;;;;;;;;;;;;;;;22.96;81.85;98617.41;5031462;28;1228;-65
2023/07/26 02:50:05;;;;;;;;;;;;;;;23.24;79.68;98619.41;5031663;28;869;-66
2023/07/26 02:52:32;;;;;;;;;;;;;;;23.41;78.08;98620.09;5031960;28;865;-66
2023/07/26 02:54:59;;;;;;;;;;;;;;;23.62;76.33;98619.75;5031579;28;861;-66
2023/07/26 02:57:26;;;;;;;;;;;;;;;23.84;74.44;98618.84;5031623;28;882;-66
2023/07/26 02:59:53;;;;;;;;;;;;;;;24.01;72.99;98619.50;5031409;28;905;-66
2023/07/26 03:02:20;;;;;;;;;;;;;;;24.12;71.70;98621.47;5031689;28;1975;-66
2023/07/26 03:04:46;;;;;;;;;;;;;;;24.16;71.16;98618.38;5031465;28;846;-66
2023/07/26 03:07:13;;;;;;;;;;;;;;;24.17;70.91;98609.34;5031824;28;846;-67
2023/07/26 03:09:40;;;;;;;;;;;;;;;24.16;70.47;98609.91;5031523;28;814;-66
2023/07/26 03:12:07;;;;;;;;;;;;;;;24.17;70.13;98611.44;5031397;28;832;-66
2023/07/26 03:14:36;;;;;;;;;;;;;;;24.22;69.74;98614.22;5031631;28;886;-66
2023/07/26 03:17:03;;;;;;;;;;;;;;;24.31;68.91;98609.53;5031362;28;889;-66
2023/07/26 03:19:30;;;;;;;;;;;;;;;24.30;68.90;98616.44;5031394;28;897;-66
2023/07/26 03:21:57;;;;;;;;;;;;;;;24.25;69.63;98612.38;5031315;28;1918;-66
2023/07/26 03:24:24;;;;;;;;;;;;;;;24.21;69.88;98607.03;5031417;28;893;-66
2023/07/26 03:26:52;;;;;;;;;;;;;;;24.22;69.85;98608.56;5031308;28;882;-66
2023/07/26 03:29:18;;;;;;;;;;;;;;;24.28;69.25;98610.56;5031241;28;889;-66
2023/07/26 03:31:45;;;;;;;;;;;;;;;24.32;69.08;98597.69;5032354;28;822;-66
2023/07/26 03:34:12;;;;;;;;;;;;;;;24.38;68.69;98603.28;5034911;28;814;-66
2023/07/26 03:36:38;;;;;;;;;;;;;;;24.44;68.39;98604.00;5034853;28;827;-67
2023/07/26 03:39:05;;;;;;;;;;;;;;;24.52;68.10;98599.34;5034781;28;838;-66
2023/07/26 03:41:31;;;;;;;;;;;;;;;24.57;67.52;98603.41;5034660;28;1957;-66
2023/07/26 03:43:58;;;;;;;;;;;;;;;24.72;66.86;98603.00;5016927;28;839;-65
2023/07/26 03:46:25;;;;;;;;;;;;;;;24.84;66.32;98601.59;5034762;28;924;-66
2023/07/26 03:48:52;;;;;;;;;;;;;;;24.93;65.86;98592.00;5034412;28;1225;-66
2023/07/26 03:51:18;;;;;;;;;;;;;;;24.98;65.23;98600.38;5034572;28;1133;-66
2023/07/26 03:53:45;;;;;;;;;;;;;;;25.02;65.47;98612.16;5034543;28;998;-66
2023/07/26 03:56:12;;;;;;;;;;;;;;;25.06;65.40;98609.03;5034767;28;869;-67
2023/07/26 03:58:38;;;;;;;;;;;;;;;25.12;65.08;98603.34;5034620;28;882;-67
2023/07/26 04:01:05;;;;;;;;;;;;;;;25.13;65.00;98602.78;5034591;28;843;-67
2023/07/26 04:03:33;;;;;;;;;;;;;;;25.08;65.87;98597.22;5034378;28;830;-66
2023/07/26 04:05:59;;;;;;;;;;;;;;;25.02;66.61;98608.56;5034435;28;842;-67
2023/07/26 04:08:26;;;;;;;;;;;;;;;25.00;67.41;98605.50;5034265;28;851;-67
2023/07/26 04:10:53;;;;;;;;;;;;;;;25.05;67.08;98610.34;5034258;28;815;-67
2023/07/26 04:13:21;;;;;;;;;;;;;;;25.13;66.80;98605.59;5034159;28;799;-67
2023/07/26 04:15:48;;;;;;;;;;;;;;;25.29;65.58;98603.16;5032889;28;1303;-66
2023/07/26 04:18:15;;;;;;;;;;;;;;;25.41;64.38;98605.31;5034168;28;894;-67
2023/07/26 04:20:42;;;;;;;;;;;;;;;25.52;63.67;98610.06;5034169;28;846;-67
2023/07/26 04:23:09;;;;;;;;;;;;;;;25.61;63.09;98604.00;5034004;28;1957;-67
2023/07/26 04:25:35;;;;;;;;;;;;;;;25.73;62.30;98603.81;5033926;28;858;-67
2023/07/26 04:28:02;;;;;;;;;;;;;;;25.87;61.43;98605.44;5033942;28;938;-67
2023/07/26 04:30:29;;;;;;;;;;;;;;;26.04;60.14;98605.19;5033811;28;854;-67
2023/07/26 04:32:56;;;;;;;;;;;;;;;26.20;59.22;98607.00;5033888;28;881;-67
2023/07/26 04:35:22;;;;;;;;;;;;;;;26.36;58.28;98602.34;5033749;28;826;-67
2023/07/26 04:37:49;;;;;;;;;;;;;;;26.48;57.53;98600.09;5034041;28;806;-67
2023/07/26 04:40:16;;;;;;;;;;;;;;;26.63;56.69;98603.19;5033683;28;1059;-66
2023/07/26 04:55:19;;;;;;;;;;;;;;;27.53;51.90;98588.56;5053442;28;919;-67
2023/07/26 04:57:46;;;;;;;;;;;;;;;27.68;51.13;98597.22;5053068;28;909;-67
2023/07/26 05:00:13;;;;;;;;;;;;;;;27.86;50.93;98593.47;5053263;28;803;-67
2023/07/26 05:02:39;;;;;;;;;;;;;;;28.08;49.87;98597.09;5053006;28;1906;-68
2023/07/26 05:05:06;;;;;;;;;;;;;;;28.22;48.80;98598.53;5053167;28;967;-67
2023/07/26 05:07:33;;;;;;;;;;;;;;;28.28;48.01;98601.25;5053320;28;1035;-66
2023/07/26 05:10:00;;;;;;;;;;;;;;;28.26;48.19;98601.81;5053157;28;870;-67
2023/07/26 05:12:26;;;;;;;;;;;;;;;28.30;47.99;98599.38;5052985;28;848;-65
2023/07/26 05:14:53;;;;;;;;;;;;;;;28.39;47.96;98597.38;5053109;28;874;-67
2023/07/26 05:17:20;;;;;;;;;;;;;;;28.57;47.72;98596.41;5053108;28;865;-65
2023/07/26 05:19:46;;;;;;;;;;;;;;;28.78;46.87;98587.06;5052884;28;875;-67
2023/07/26 05:22:13;;;;;;;;;;;;;;;28.89;46.38;98592.44;5052844;28;1870;-68
2023/07/26 05:24:40;;;;;;;;;;;;;;;28.91;46.23;98587.72;5052651;28;931;-65
2023/07/26 05:27:07;;;;;;;;;;;;;;;29.01;45.95;98587.19;5052621;28;910;-65
2023/07/26 05:29:34;;;;;;;;;;;;;;;29.11;46.10;98580.47;5052653;28;855;-68
2023/07/26 05:32:01;;;;;;;;;;;;;;;29.22;45.78;98578.63;5052632;28;833;-68
2023/07/26 05:34:27;;;;;;;;;;;;;;;29.34;45.82;98576.97;5052578;28;802;-67
2023/07/26 05:36:55;;;;;;;;;;;;;;;29.46;45.84;98580.97;5052652;28;861;-65
2023/07/26 05:39:21;;;;;;;;;;;;;;;29.49;45.42;98574.16;5052429;28;887;-66
2023/07/26 05:41:48;;;;;;;;;;;;;;;29.59;45.69;98573.63;5052418;28;1943;-67
2023/07/26 05:44:15;;;;;;;;;;;;;;;29.64;45.38;98581.25;5052664;28;880;-66
2023/07/26 05:46:42;;;;;;;;;;;;;;;29.81;44.89;98570.13;5052392;28;1010;-66
2023/07/26 05:49:10;;;;;;;;;;;;;;;29.94;44.32;98566.34;5052244;28;840;-67
2023/07/26 05:51:36;;;;;;;;;;;;;;;30.03;43.93;98565.00;5052321;28;830;-67
2023/07/26 05:54:03;;;;;;;;;;;;;;;30.15;43.71;98574.72;5030859;28;1309;-68
2023/07/26 05:56:30;;;;;;;;;;;;;;;30.37;43.56;98570.38;5031392;28;830;-67
2023/07/26 05:58:57;;;;;;;;;;;;;;;30.56;43.06;98575.69;5032210;28;842;-67
2023/07/26 06:01:23;;;;;;;;;;;;;;;30.80;42.88;98571.44;5032176;28;1977;-66
2023/07/26 06:03:50;;;;;;;;;;;;;;;30.97;42.35;98565.16;5032292;28;799;-67
2023/07/26 06:06:17;;;;;;;;;;;;;;;31.19;41.25;98557.09;5012486;28;1480;-65
2023/07/26 06:08:43;;;;;;;;;;;;;;;31.47;40.73;98556.81;5012441;28;889;-67
2023/07/26 06:11:10;;;;;;;;;;;;;;;31.63;40.32;98536.75;5012458;28;798;-65
2023/07/26 06:13:38;;;;;;;;;;;;;;;32.20;39.47;98558.06;5012473;28;827;-65
2023/07/26 06:16:04;;;;;;;;;;;;;;;32.50;38.77;98549.25;5012410;28;827;-67
2023/07/26 06:18:31;;;;;;;;;;;;;;;32.76;39.09;98555.69;5012442;28;827;-67
2023/07/26 06:20:58;;;;;;;;;;;;;;;33.03;38.18;98546.41;5012318;28;842;-66
2023/07/26 06:23:24;;;;;;;;;;;;;;;33.18;37.11;98554.09;5012372;28;1886;-66
2023/07/26 06:25:50;;;;;;;;;;;;;;;33.31;36.61;98543.06;5012517;28;1219;-65
2023/07/26 06:28:17;;;;;;;;;;;;;;;33.68;35.84;98545.25;5012346;28;826;-67
2023/07/26 06:30:44;;;;;;;;;;;;;;;33.40;35.81;98544.47;5012429;28;755;-67
2023/07/26 06:33:11;;;;;;;;;;;;;;;33.52;35.91;98536.84;5012554;28;858;-67
2023/07/26 06:35:37;;;;;;;;;;;;;;;33.86;34.74;98538.09;5012124;28;861;-65
2023/07/26 06:38:04;;;;;;;;;;;;;;;34.27;34.61;98541.31;5012295;28;818;-65
2023/07/26 06:40:31;;;;;;;;;;;;;;;34.78;33.50;98541.53;5012123;28;807;-70
2023/07/26 06:42:58;;;;;;;;;;;;;;;35.36;32.36;98535.81;5011891;28;1941;-67
2023/07/26 06:45:25;;;;;;;;;;;;;;;35.91;31.08;98539.00;5012201;28;863;-65
2023/07/26 06:47:53;;;;;;;;;;;;;;;36.03;30.58;98532.59;5012273;28;995;-67
2023/07/26 06:50:20;;;;;;;;;;;;;;;36.45;30.62;98534.81;5011958;28;878;-66
2023/07/26 06:52:50;;;;;;;;;;;;;;;36.57;30.94;98526.25;5018170;28;1401;-65
2023/07/26 06:55:17;;;;;;;;;;;;;;;36.81;30.56;98494.75;5031526;28;894;-65
2023/07/26 06:57:44;;;;;;;;;;;;;;;37.70;28.83;98516.34;5031673;28;815;-66
2023/07/26 07:00:12;;;;;;;;;;;;;;;37.93;28.03;98519.22;5031636;28;897;-66
2023/07/26 07:02:39;;;;;;;;;;;;;;;38.23;27.90;98516.75;5031590;28;1930;-66
2023/07/26 07:05:07;;;;;;;;;;;;;;;38.50;27.75;98512.59;5031486;28;913;-66
2023/07/26 07:07:33;;;;;;;;;;;;;;;38.88;27.37;98516.22;5034019;28;922;-66
2023/07/26 07:10:01;;;;;;;;;;;;;;;39.21;27.10;98510.22;5035615;28;799;-66
2023/07/26 07:12:28;;;;;;;;;;;;;;;39.14;26.72;98503.34;5035439;28;814;-65
2023/07/26 07:14:55;;;;;;;;;;;;;;;39.12;26.43;98509.00;5035276;28;870;-65
2023/07/26 07:17:22;;;;;;;;;;;;;;;38.97;26.12;98506.69;5035309;28;799;-65
2023/07/26 07:19:48;;;;;;;;;;;;;;;39.63;26.01;98501.69;5035299;28;870;-65
2023/07/26 07:22:16;;;;;;;;;;;;;;;40.18;24.80;98499.63;5035111;28;1945;-65
2023/07/26 07:24:43;;;;;;;;;;;;;;;40.06;25.05;98509.81;5035050;28;874;-64
2023/07/26 07:27:09;;;;;;;;;;;;;;;40.30;24.64;98511.09;5035265;28;870;-66
2023/07/26 07:29:36;;;;;;;;;;;;;;;40.06;25.53;98513.44;5035058;28;850;-66
2023/07/26 07:32:03;;;;;;;;;;;;;;;39.95;26.07;98509.25;5034847;28;886;-66
2023/07/26 07:34:30;;;;;;;;;;;;;;;39.83;25.99;98499.16;5033665;28;1255;-66
2023/07/26 07:36:57;;;;;;;;;;;;;;;39.61;25.96;98508.09;5034944;28;898;-65
2023/07/26 07:39:24;;;;;;;;;;;;;;;39.70;26.32;98509.31;5034914;28;838;-64
2023/07/26 07:41:51;;;;;;;;;;;;;;;39.90;26.03;98507.53;5034820;28;1965;-64
2023/07/26 07:44:18;;;;;;;;;;;;;;;39.39;26.46;98493.94;5034835;28;878;-66
2023/07/26 07:46:45;;;;;;;;;;;;;;;39.44;26.81;98499.94;5034597;28;890;-65
2023/07/26 07:49:12;;;;;;;;;;;;;;;38.90;26.95;98493.25;5034696;28;803;-66
2023/07/26 07:51:38;;;;;;;;;;;;;;;38.28;27.71;98494.66;5034588;28;811;-66
2023/07/26 07:54:06;;;;;;;;;;;;;;;37.48;29.18;98492.59;5034296;28;1305;-66
2023/07/26 07:56:33;;;;;;;;;;;;;;;36.84;29.65;98485.63;5034396;28;1315;-66
2023/07/26 07:59:00;;;;;;;;;;;;;;;36.59;30.13;98486.88;5034479;28;874;-67
2023/07/26 08:01:26;;;;;;;;;;;;;;;37.17;29.95;98487.75;5034362;28;1966;-67
2023/07/26 08:03:53;;;;;;;;;;;;;;;37.54;28.98;98481.47;5034402;28;795;-67
2023/07/26 08:06:19;;;;;;;;;;;;;;;37.17;29.31;98473.38;5034409;28;818;-67
2023/07/26 08:08:46;;;;;;;;;;;;;;;37.05;30.17;98479.06;5034523;28;826;-67
2023/07/26 08:11:12;;;;;;;;;;;;;;;37.69;29.08;98472.34;5034629;28;791;-65
2023/07/26 08:13:38;;;;;;;;;;;;;;;38.68;28.14;98473.25;5034490;28;1197;-64
2023/07/26 08:16:05;;;;;;;;;;;;;;;39.66;26.98;98475.13;5034390;28;1193;-64
2023/07/26 08:18:32;;;;;;;;;;;;;;;40.04;26.45;98477.88;5033147;28;832;-64
2023/07/26 08:20:58;;;;;;;;;;;;;;;39.64;26.73;98488.72;5034105;28;1387;-63
2023/07/26 08:23:24;;;;;;;;;;;;;;;39.68;26.49;98488.94;5033918;28;1886;-62
2023/07/26 08:25:50;;;;;;;;;;;;;;;39.67;26.41;98490.34;5032652;28;1276;-64
2023/07/26 08:28:17;;;;;;;;;;;;;;;40.24;25.78;98478.16;5033925;28;850;-64
2023/07/26 08:30:43;;;;;;;;;;;;;;;40.31;25.75;98471.31;5033890;28;799;-66
2023/07/26 08:33:11;;;;;;;;;;;;;;;40.13;25.62;98471.09;5033933;28;842;-64
2023/07/26 08:47:49;;;;;;;;;;;;;;;39.68;25.58;98465.81;5049275;28;970;-65
2023/07/26 08:50:16;;;;;;;;;;;;;;;39.35;26.14;98461.16;5053448;28;865;-70
2023/07/26 08:52:42;;;;;;;;;;;;;;;39.13;26.64;98460.63;5053130;28;1290;-65
2023/07/26 08:55:11;;;;;;;;;;;;;;;39.45;26.04;98452.28;5053212;28;842;-66
2023/07/26 08:57:37;;;;;;;;;;;;;;;39.39;26.30;98453.47;5053334;28;913;-64
2023/07/26 09:00:05;;;;;;;;;;;;;;;39.31;26.29;98452.25;5053205;28;887;-65
2023/07/26 09:02:33;;;;;;;;;;;;;;;39.23;26.42;98448.91;5053155;28;1910;-65
2023/07/26 09:04:59;;;;;;;;;;;;;;;39.58;26.59;98449.44;5053131;28;992;-65
2023/07/26 09:07:26;;;;;;;;;;;;;;;39.58;25.88;98445.78;5053108;28;858;-65
2023/07/26 09:09:53;;;;;;;;;;;;;;;39.84;25.80;98428.34;5053224;28;838;-65
2023/07/26 09:12:26;;;;;;;;;;;;;;;39.98;25.87;98426.97;5052939;28;859;-65
2023/07/26 09:14:54;;;;;;;;;;;;;;;40.19;25.50;98431.66;5053401;28;1252;-66
2023/07/26 09:48:22;;;;;;;;;;;;;;;40.14;25.65;98388.72;5437968;22;1666;-65
2023/07/26 09:50:51;;;;;;;;;;;;;;;40.37;24.80;98379.03;5052360;28;822;-64
2023/07/26 09:53:18;;;;;;;;;;;;;;;40.60;24.88;98372.94;5052347;28;806;-65
2023/07/26 09:55:44;;;;;;;;;;;;;;;40.83;25.01;98376.22;5050930;28;1185;-63
2023/07/26 09:58:13;;;;;;;;;;;;;;;40.64;24.91;98368.75;5052286;28;889;-65
2023/07/26 10:00:42;;;;;;;;;;;;;;;40.40;25.12;98369.06;5052123;28;880;-64
2023/07/26 10:03:10;;;;;;;;;;;;;;;40.52;25.33;98360.97;5052146;28;1918;-65
2023/07/26 10:05:41;;;;;;;;;;;;;;;40.61;24.97;98359.22;5052064;28;1201;-64
2023/07/26 10:08:09;;;;;;;;;;;;;;;40.46;24.88;98352.00;5052094;28;830;-66
2023/07/26 10:10:35;;;;;;;;;;;;;;;40.38;24.46;98349.44;5052089;28;842;-65
2023/07/26 10:13:04;;;;;;;;;;;;;;;40.71;23.80;98341.59;5052046;28;858;-65
2023/07/26 10:15:32;;;;;;;;;;;;;;;41.07;24.04;98331.00;5051958;28;818;-65
2023/07/26 10:18:00;;;;;;;;;;;;;;;41.38;23.54;98335.31;5051795;28;838;-64
2023/07/26 10:20:27;;;;;;;;;;;;;;;41.47;23.46;98333.53;5051954;28;849;-64
2023/07/26 10:22:54;;;;;;;;;;;;;;;41.63;22.93;98313.97;5051848;28;1948;-65
2023/07/26 10:25:21;;;;;;;;;;;;;;;41.64;22.40;98311.81;5051836;28;921;-66
2023/07/26 10:27:49;;;;;;;;;;;;;;;41.63;22.85;98311.06;5051822;28;864;-66
2023/07/26 10:30:16;;;;;;;;;;;;;;;41.83;22.77;98296.69;5051861;28;806;-65
2023/07/26 10:32:48;;;;;;;;;;;;;;;42.18;22.53;98301.06;5051796;28;873;-64
2023/07/26 10:35:35;;;;;;;;;;;;;;;42.39;21.76;98302.63;5051788;28;916;-68
2023/07/26 10:38:05;;;;;;;;;;;;;;;41.98;22.39;98287.19;5051667;28;2011;-69
2023/07/26 10:40:33;;;;;;;;;;;;;;;41.98;22.62;98284.28;5051608;28;862;-67
2023/07/26 10:43:15;;;;;;;;;;;;;;;42.08;23.06;98286.13;5055208;28;1889;-64
2023/07/26 10:45:44;;;;;;;;;;;;;;;41.90;22.99;98271.59;5055767;28;846;-65
2023/07/26 10:48:14;;;;;;;;;;;;;;;42.07;23.34;98270.88;5055836;28;1195;-66
2023/07/26 10:50:41;;;;;;;;;;;;;;;42.37;22.05;98264.81;5055652;28;844;-64
2023/07/26 10:53:25;;;;;;;;;;;;;;;42.62;21.89;98269.47;5055831;28;814;-65
2023/07/26 10:55:52;;;;;;;;;;;;;;;42.27;22.16;98265.16;5055894;28;799;-63
2023/07/26 10:58:19;;;;;;;;;;;;;;;42.45;22.45;98261.53;5055602;28;787;-63
2023/07/26 11:00:45;;;;;;;;;;;;;;;42.82;22.00;98255.69;5055453;28;814;-63
2023/07/26 11:03:12;;;;;;;;;;;;;;;42.86;21.01;98252.22;5055439;28;1913;-65
2023/07/26 11:05:39;;;;;;;;;;;;;;;42.82;20.31;98252.06;5055444;28;843;-68
2023/07/26 11:08:06;;;;;;;;;;;;;;;42.84;20.60;98243.44;5055423;28;834;-66
2023/07/26 11:10:35;;;;;;;;;;;;;;;43.18;20.00;98235.25;5055796;28;835;-68
2023/07/26 11:13:08;;;;;;;;;;;;;;;43.35;19.92;98233.69;5055376;28;857;-69
2023/07/26 11:15:36;;;;;;;;;;;;;;;43.61;19.65;98230.19;5055237;28;830;-67
2023/07/26 11:18:03;;;;;;;;;;;;;;;43.86;19.11;98231.06;5055209;28;846;-67
2023/07/26 11:20:30;;;;;;;;;;;;;;;43.53;18.62;98227.78;5055474;28;838;-69
2023/07/26 11:22:57;;;;;;;;;;;;;;;43.22;19.11;98226.66;5055217;28;1886;-67
2023/07/26 11:25:23;;;;;;;;;;;;;;;43.22;19.22;98226.66;5055237;28;834;-70
2023/07/26 11:27:50;;;;;;;;;;;;;;;43.44;19.10;98223.81;5055127;28;861;-70
2023/07/26 11:30:18;;;;;;;;;;;;;;;43.67;18.30;98215.91;5055122;28;829;-69
2023/07/26 11:32:45;;;;;;;;;;;;;;;44.02;18.32;98209.06;5055058;28;834;-71
2023/07/26 11:35:13;;;;;;;;;;;;;;;43.93;18.14;98204.38;5054933;28;882;-68
2023/07/26 11:37:49;;;;;;;;;;;;;;;43.99;18.03;98210.41;5055260;28;1296;-67
2023/07/26 11:40:16;;;;;;;;;;;;;;;43.90;18.33;98199.94;5054857;28;858;-68
2023/07/26 11:42:43;;;;;;;;;;;;;;;43.80;18.08;98200.31;5054877;28;1947;-68
2023/07/26 11:45:10;;;;;;;;;;;;;;;43.77;18.07;98187.16;5054643;28;849;-69
2023/07/26 11:47:35;;;;;;;;;;;;;;;44.13;17.57;98186.09;5054768;28;1203;-68
2023/07/26 11:50:05;;;;;;;;;;;;;;;44.49;17.39;98182.84;5054712;28;861;-67
2023/07/26 11:52:32;;;;;;;;;;;;;;;44.92;16.80;98155.72;5054636;28;810;-66
2023/07/26 11:55:00;;;;;;;;;;;;;;;44.93;16.39;98168.84;5054578;28;861;-66
2023/07/26 11:57:28;;;;;;;;;;;;;;;45.12;16.79;98164.25;5054639;28;876;-65
2023/07/26 11:59:56;;;;;;;;;;;;;;;45.10;16.21;98172.22;5054481;28;888;-68
2023/07/26 12:02:24;;;;;;;;;;;;;;;44.79;17.02;98163.34;5054503;28;1969;-69
2023/07/26 12:05:09;;;;;;;;;;;;;;;44.88;17.07;98169.44;5054300;28;810;-69
2023/07/26 12:07:35;;;;;;;;;;;;;;;44.80;17.11;98167.00;5054329;28;838;-69
2023/07/26 12:10:02;;;;;;;;;;;;;;;44.94;16.75;98155.00;5054360;28;822;-68
2023/07/26 12:12:38;;;;;;;;;;;;;;;45.46;16.69;98137.47;5054126;28;814;-66
2023/07/26 12:15:07;;;;;;;;;;;;;;;46.08;15.81;98136.03;5054125;28;909;-68
2023/07/26 12:17:32;;;;;;;;;;;;;;;45.94;15.63;98134.22;5054444;28;1265;-67
2023/07/26 12:20:03;;;;;;;;;;;;;;;45.95;16.16;98143.75;5054469;28;881;-66
2023/07/26 12:22:29;;;;;;;;;;;;;;;45.90;15.74;98145.84;5054151;28;1943;-66
2023/07/26 12:25:00;;;;;;;;;;;;;;;46.13;15.91;98137.59;5054225;28;889;-66
2023/07/26 12:27:32;;;;;;;;;;;;;;;46.39;15.81;98137.44;5053944;28;853;-68
2023/07/26 12:29:58;;;;;;;;;;;;;;;46.54;15.53;98132.66;5053999;28;873;-67
2023/07/26 12:32:25;;;;;;;;;;;;;;;46.63;15.48;98131.38;5053876;28;844;-66
2023/07/26 12:34:51;;;;;;;;;;;;;;;46.77;15.47;98122.91;5053799;28;870;-67
2023/07/26 12:37:28;;;;;;;;;;;;;;;46.86;15.08;98109.19;5053914;28;1001;-69
2023/07/26 12:39:54;;;;;;;;;;;;;;;46.96;15.05;98112.31;5053730;28;869;-68
2023/07/26 12:42:21;;;;;;;;;;;;;;;47.08;14.87;98100.09;5053646;28;1915;-67
2023/07/26 12:44:47;;;;;;;;;;;;;;;47.05;14.66;98086.88;5053497;28;921;-69
2023/07/26 12:47:14;;;;;;;;;;;;;;;46.91;15.17;98092.47;5053928;28;898;-67
2023/07/26 12:49:41;;;;;;;;;;;;;;;46.79;15.07;98099.56;5053459;28;1229;-67
2023/07/26 12:52:08;;;;;;;;;;;;;;;46.71;15.29;98087.72;5053361;28;921;-69
2023/07/26 12:54:35;;;;;;;;;;;;;;;46.86;14.91;98094.56;5053487;28;928;-68
2023/07/26 12:57:01;;;;;;;;;;;;;;;46.86;14.86;98088.72;5053466;28;865;-68
2023/07/26 12:59:28;;;;;;;;;;;;;;;47.11;14.56;98062.84;5053400;28;787;-67
2023/07/26 13:01:54;;;;;;;;;;;;;;;47.14;14.56;98082.69;5053484;28;1917;-66
2023/07/26 13:04:21;;;;;;;;;;;;;;;46.75;14.82;98075.34;5052804;28;815;-67
2023/07/26 13:06:48;;;;;;;;;;;;;;;46.94;14.63;98076.44;5051899;28;1172;-66
2023/07/26 13:09:14;;;;;;;;;;;;;;;46.82;14.92;98068.94;5053235;28;798;-67
2023/07/26 13:11:41;;;;;;;;;;;;;;;46.72;15.26;98073.84;5053084;28;994;-67
2023/07/26 13:14:08;;;;;;;;;;;;;;;46.80;14.77;98063.06;5053272;28;868;-67
2023/07/26 13:16:34;;;;;;;;;;;;;;;46.78;15.02;98059.38;5053123;28;811;-67
2023/07/26 13:19:01;;;;;;;;;;;;;;;46.63;15.57;98056.16;5053016;28;877;-68
2023/07/26 13:21:28;;;;;;;;;;;;;;;47.22;15.23;98062.38;5052858;28;1890;-68
2023/07/26 13:23:56;;;;;;;;;;;;;;;47.30;15.08;98070.50;5052860;28;854;-69
2023/07/26 13:26:22;;;;;;;;;;;;;;;46.93;14.84;98061.09;5053214;28;858;-66
2023/07/26 13:28:49;;;;;;;;;;;;;;;47.34;15.08;98066.91;5052717;28;850;-68
2023/07/26 13:31:16;;;;;;;;;;;;;;;47.18;14.93;98053.53;5052815;28;873;-67
2023/07/26 13:33:43;;;;;;;;;;;;;;;47.15;15.23;98057.09;5052630;28;940;-66
2023/07/26 13:36:09;;;;;;;;;;;;;;;46.96;14.57;98047.25;5052709;28;862;-68
2023/07/26 13:38:36;;;;;;;;;;;;;;;47.27;14.67;98056.56;5052579;28;810;-68
2023/07/26 13:41:04;;;;;;;;;;;;;;;47.17;14.66;98049.09;5052511;28;837;-68
2023/07/26 13:43:31;;;;;;;;;;;;;;;46.73;15.42;98040.97;5066721;28;1964;-67
2023/07/26 13:45:57;;;;;;;;;;;;;;;46.59;15.28;98023.22;5054471;28;1183;-69
2023/07/26 13:48:24;;;;;;;;;;;;;;;46.88;15.48;98021.53;5072469;28;1125;-71
2023/07/26 13:50:51;;;;;;;;;;;;;;;46.92;15.16;98035.50;5072390;28;881;-67
2023/07/26 13:53:18;;;;;;;;;;;;;;;46.88;14.67;98026.66;5072447;28;920;-67
2023/07/26 13:55:44;;;;;;;;;;;;;;;46.30;15.10;98031.38;5072388;28;814;-68
2023/07/26 13:58:11;;;;;;;;;;;;;;;46.06;15.30;98019.97;5072299;28;826;-69
2023/07/26 14:00:37;;;;;;;;;;;;;;;46.03;15.45;98016.28;5072319;28;877;-67